Time;durP1;ratioP1;P1;durP2;ratioP2;P2;SDS_P1;SDS_P2;PMS_P1;PMS_P2;Temp;Humidity;BMP_temperature;BMP_pressure;BME280_temperature;BME280_humidity;BME280_pressure;Samples;Min_cycle;Max_cycle;Signal;HPM_P1;HPM_P2
2022/06/03 00:02:06;;;;;;;7.60;4.92;;;;;;;15.88;84.30;99832.38;1622317;87;21607;-82
2022/06/03 00:05:28;;;;;;;9.70;5.72;;;;;;;15.86;84.57;99838.23;1617385;88;21172;-82
2022/06/03 00:08:06;;;;;;;7.37;5.62;;;;;;;15.79;84.68;99838.17;1617636;88;21095;-82
2022/06/03 00:11:17;;;;;;;7.33;5.30;;;;;;;15.73;84.71;99833.13;1617677;88;21126;-82
2022/06/03 00:14:20;;;;;;;8.23;5.80;;;;;;;15.72;84.79;99852.66;1619678;87;21067;-83
2022/06/03 00:17:23;;;;;;;12.18;6.10;;;;;;;15.69;84.80;99852.81;1631221;87;21549;-82
2022/06/03 00:20:26;;;;;;;12.73;5.70;;;;;;;15.64;84.90;99852.19;1660038;86;21523;-82
2022/06/03 00:23:23;;;;;;;7.67;5.45;;;;;;;15.60;84.88;99860.73;1662998;86;22054;-80
2022/06/03 00:26:15;;;;;;;9.98;5.75;;;;;;;15.56;84.89;99863.16;1665295;86;21088;-79
2022/06/03 00:28:48;;;;;;;7.03;6.33;;;;;;;15.50;85.01;99864.34;1664940;86;21042;-79
2022/06/03 00:31:32;;;;;;;10.15;6.50;;;;;;;15.46;85.19;99872.51;1665520;86;21136;-80
2022/06/03 00:34:24;;;;;;;6.87;6.20;;;;;;;15.43;85.15;99872.18;1665428;86;21136;-78
2022/06/03 00:37:18;;;;;;;13.58;7.10;;;;;;;15.41;85.17;99875.38;1665118;86;21054;-81
2022/06/03 00:40:12;;;;;;;10.10;6.60;;;;;;;15.39;85.31;99878.10;1665508;86;21095;-81
2022/06/03 00:43:01;;;;;;;17.12;7.22;;;;;;;15.36;85.37;99873.42;1665519;86;21184;-81
2022/06/03 00:46:03;;;;;;;9.60;6.37;;;;;;;15.34;85.49;99871.32;1665570;86;21156;-79
2022/06/03 00:48:54;;;;;;;6.78;6.10;;;;;;;15.35;85.54;99879.67;1665373;85;21139;-80
2022/06/03 00:51:28;;;;;;;7.85;6.47;;;;;;;15.32;85.52;99881.14;1658174;86;21180;-81
2022/06/03 00:54:47;;;;;;;7.37;6.65;;;;;;;15.31;85.53;99891.34;1665429;86;21108;-80
2022/06/03 00:57:28;;;;;;;9.98;6.80;;;;;;;15.29;85.58;99896.72;1665169;86;21639;-80
2022/06/03 01:00:12;;;;;;;8.00;7.20;;;;;;;15.26;85.61;99899.98;1665538;86;21659;-79
2022/06/03 01:02:50;;;;;;;12.55;7.58;;;;;;;15.25;85.71;99899.14;1665087;86;27406;-81
2022/06/03 01:05:31;;;;;;;12.50;7.12;;;;;;;15.23;85.59;99903.19;1665288;85;21050;-80
2022/06/03 01:08:40;;;;;;;12.65;6.80;;;;;;;15.23;85.71;99908.93;1665506;86;21080;-79
2022/06/03 01:11:21;;;;;;;10.45;7.42;;;;;;;15.20;85.75;99913.08;1665178;86;21128;-81
2022/06/03 01:14:19;;;;;;;9.03;6.55;;;;;;;15.16;85.78;99918.99;1667503;85;22205;-79
2022/06/03 01:17:03;;;;;;;17.42;6.87;;;;;;;15.12;85.78;99924.03;1672601;85;21132;-80
2022/06/03 01:19:59;;;;;;;9.90;7.70;;;;;;;15.15;85.83;99923.89;1671975;85;21112;-80
2022/06/03 01:22:44;;;;;;;12.78;8.08;;;;;;;15.11;85.38;99927.59;1672793;85;21258;-82
2022/06/03 01:25:43;;;;;;;11.80;7.97;;;;;;;15.04;85.50;99930.15;1672536;85;21104;-80
2022/06/03 01:28:38;;;;;;;8.78;7.85;;;;;;;15.01;85.68;99919.69;1672765;85;21163;-80
2022/06/03 01:31:31;;;;;;;9.78;8.30;;;;;;;14.98;85.79;99921.18;1659085;85;21056;-80
2022/06/03 01:34:16;;;;;;;12.60;8.45;;;;;;;14.95;85.67;99928.79;1672703;85;21025;-81
2022/06/03 01:36:50;;;;;;;7.70;6.80;;;;;;;14.91;85.64;99927.23;1672552;85;21115;-81
2022/06/03 01:39:48;;;;;;;;;;;;;;;14.91;85.66;99923.70;1675241;85;21108;-80
2022/06/03 01:42:41;;;;;;;8.30;6.75;;;;;;;14.90;85.64;99926.81;1663021;86;20224;-80
2022/06/03 01:45:48;;;;;;;8.45;7.65;;;;;;;14.84;85.34;99933.27;1662920;86;21112;-80
2022/06/03 01:48:40;;;;;;;8.00;7.25;;;;;;;14.79;85.42;99949.84;1687222;84;21008;-80
2022/06/03 01:51:30;;;;;;;7.33;6.62;;;;;;;14.74;85.50;99955.78;1694762;84;21566;-80
2022/06/03 01:54:30;;;;;;;13.50;6.92;;;;;;;14.72;85.52;99958.97;1697563;83;21021;-80
2022/06/03 01:57:28;;;;;;;9.40;7.08;;;;;;;14.71;85.58;99959.91;1694263;84;21621;-81
2022/06/03 02:00:04;;;;;;;7.87;7.08;;;;;;;14.70;85.54;99969.25;1694175;84;21991;-80
2022/06/03 02:02:46;;;;;;;12.30;6.95;;;;;;;14.70;85.54;99976.72;1694202;84;21089;-80
2022/06/03 02:05:51;;;;;;;11.55;7.50;;;;;;;14.70;85.52;99978.05;1694399;84;21101;-81
2022/06/03 02:08:46;;;;;;;7.80;6.55;;;;;;;14.68;85.51;99975.94;1694398;84;21117;-81
2022/06/03 02:11:36;;;;;;;7.70;6.60;;;;;;;14.65;85.49;99978.72;1648434;84;21180;-81
2022/06/03 02:14:17;;;;;;;6.87;6.17;;;;;;;14.69;85.54;99976.31;1692219;84;21122;-80
2022/06/03 02:17:32;;;;;;;9.20;6.10;;;;;;;14.69;85.46;99974.98;1672931;85;21009;-81
2022/06/03 02:20:49;;;;;;;7.37;6.55;;;;;;;14.64;85.23;99971.69;1646237;87;21082;-80
2022/06/03 02:23:48;;;;;;;6.80;5.97;;;;;;;14.57;84.97;99967.56;1691648;84;21034;-80
2022/06/03 02:26:43;;;;;;;6.78;5.62;;;;;;;14.53;84.90;99964.67;1671469;85;21017;-79
2022/06/03 02:32:53;;;;;;;8.18;5.92;;;;;;;14.43;85.17;99961.55;1673953;84;21107;-79
2022/06/03 02:35:54;;;;;;;6.43;5.60;;;;;;;14.40;84.97;99973.13;1675000;85;21107;-80
2022/06/03 02:39:06;;;;;;;6.05;5.42;;;;;;;14.36;85.03;99973.34;1691497;84;21075;-79
2022/06/03 02:41:58;;;;;;;9.15;5.50;;;;;;;14.33;85.15;99974.80;1691656;84;21174;-79
2022/06/03 02:44:54;;;;;;;6.15;5.20;;;;;;;14.27;84.98;99982.52;1647388;85;21132;-81
2022/06/03 02:47:51;;;;;;;8.25;5.12;;;;;;;14.21;84.80;99986.77;1691584;84;21096;-78
2022/06/03 02:50:43;;;;;;;5.60;4.95;;;;;;;14.16;84.96;99986.09;1646109;87;21108;-79
2022/06/03 02:53:27;;;;;;;5.22;4.72;;;;;;;14.14;85.07;99994.09;1675068;85;21096;-81
2022/06/03 02:56:09;;;;;;;5.35;4.58;;;;;;;14.09;84.94;99999.57;1646134;87;22199;-81
2022/06/03 02:58:59;;;;;;;5.72;4.50;;;;;;;14.10;85.01;100005.27;1674712;85;21230;-81
2022/06/03 03:01:49;;;;;;;7.87;4.85;;;;;;;14.12;85.03;100003.42;1646079;87;21188;-82
2022/06/03 03:05:08;;;;;;;5.37;4.58;;;;;;;14.13;84.93;100006.44;1673052;85;21207;-81
2022/06/03 03:08:03;;;;;;;6.25;4.60;;;;;;;14.19;84.99;100025.64;1645917;87;21267;-78
2022/06/03 03:11:11;;;;;;;5.00;4.60;;;;;;;14.18;84.62;100027.43;1675372;85;21131;-80
2022/06/03 03:14:21;;;;;;;6.28;4.53;;;;;;;14.11;84.60;100027.30;1691608;84;22371;-80
2022/06/03 03:17:24;;;;;;;4.37;3.98;;;;;;;14.10;84.74;100034.82;1620234;88;21105;-78
2022/06/03 03:20:35;;;;;;;5.75;4.30;;;;;;;14.13;84.48;100035.55;1618844;88;21102;-81
2022/06/03 03:23:16;;;;;;;10.45;3.90;;;;;;;14.15;84.32;100040.78;1646845;87;21523;-79
2022/06/03 03:26:08;;;;;;;4.50;4.10;;;;;;;14.12;84.13;100043.11;1666779;85;21119;-81
2022/06/03 03:29:10;;;;;;;4.15;3.83;;;;;;;14.13;84.01;100044.81;1666425;86;21104;-80
2022/06/03 03:32:05;;;;;;;4.47;3.87;;;;;;;14.15;83.79;100043.43;1667024;86;21121;-79
2022/06/03 03:35:09;;;;;;;6.10;3.65;;;;;;;14.10;83.64;100043.64;1668187;85;21167;-79
2022/06/03 03:38:06;;;;;;;4.47;4.05;;;;;;;14.09;83.63;100047.20;1674275;85;21088;-79
2022/06/03 03:40:45;;;;;;;4.50;3.90;;;;;;;14.12;83.51;100062.95;1674753;85;21049;-79
2022/06/03 03:43:48;;;;;;;4.00;3.60;;;;;;;14.10;83.47;100065.25;1674791;85;21508;-81
2022/06/03 03:46:47;;;;;;;6.55;3.65;;;;;;;14.06;83.44;100072.45;1674659;85;21511;-80
2022/06/03 03:50:02;;;;;;;3.62;3.33;;;;;;;14.01;83.38;100079.72;1674973;85;21084;-80
2022/06/03 03:52:42;;;;;;;4.10;3.35;;;;;;;14.04;83.47;100081.39;1701474;84;21000;-79
2022/06/03 03:55:40;;;;;;;5.33;3.35;;;;;;;14.01;83.26;100088.98;1689018;84;20985;-79
2022/06/03 03:58:53;;;;;;;8.53;4.10;;;;;;;13.99;83.13;100101.41;1702417;84;21135;-79
2022/06/03 04:01:37;;;;;;;3.70;3.35;;;;;;;13.96;82.80;100104.17;1702467;84;21047;-79
2022/06/03 04:04:27;;;;;;;4.62;3.17;;;;;;;13.94;82.93;100104.70;1703064;83;21039;-80
2022/06/03 04:07:08;;;;;;;3.50;3.30;;;;;;;13.89;82.96;100104.87;1675440;85;21137;-80
2022/06/03 04:10:04;;;;;;;5.12;3.37;;;;;;;13.85;82.95;100114.30;1675866;85;21129;-80
2022/06/03 04:12:40;;;;;;;;;;;;;;;13.79;82.57;100113.23;1664263;85;21656;-79
2022/06/03 04:15:40;;;;;;;3.98;3.40;;;;;;;13.76;82.79;100110.23;1667739;84;20190;-79
2022/06/03 04:18:48;;;;;;;4.28;3.90;;;;;;;13.74;82.92;100118.69;1700969;84;21037;-82
2022/06/03 04:21:58;;;;;;;5.45;3.65;;;;;;;13.75;83.03;100116.43;1700763;84;21065;-80
2022/06/03 04:24:53;;;;;;;4.08;3.40;;;;;;;13.75;83.34;100110.70;1694834;84;21098;-80
2022/06/03 04:27:42;;;;;;;3.42;3.17;;;;;;;13.82;82.97;100117.06;1669300;85;21114;-80
2022/06/03 04:31:04;;;;;;;3.70;3.40;;;;;;;13.86;83.10;100116.03;1672233;85;21089;-80
2022/06/03 04:34:17;;;;;;;9.90;3.50;;;;;;;13.90;82.81;100116.30;1642255;87;21087;-80
2022/06/03 04:36:50;;;;;;;3.80;3.50;;;;;;;13.94;82.47;100132.48;1614457;88;21106;-80
2022/06/03 04:39:58;;;;;;;3.30;3.00;;;;;;;14.00;82.60;100125.61;1614063;88;21521;-80
2022/06/03 04:43:07;;;;;;;4.00;3.47;;;;;;;14.05;82.15;100138.19;1614453;88;21232;-82
2022/06/03 04:46:08;;;;;;;8.50;2.95;;;;;;;14.12;82.35;100140.14;1614621;88;21075;-81
2022/06/03 04:49:00;;;;;;;3.77;3.15;;;;;;;14.26;82.31;100139.14;1614794;88;21090;-81
2022/06/03 04:51:59;;;;;;;5.80;3.27;;;;;;;14.37;81.26;100143.99;1614400;88;21381;-80
2022/06/03 04:55:21;;;;;;;3.72;3.05;;;;;;;14.39;80.86;100142.17;1614490;88;21040;-80
2022/06/03 04:58:02;;;;;;;5.20;3.02;;;;;;;14.40;79.83;100142.55;1614480;88;21302;-79
2022/06/03 05:01:15;;;;;;;3.20;2.80;;;;;;;14.38;79.87;100148.38;1614722;88;21376;-81
2022/06/03 05:03:56;;;;;;;5.65;2.90;;;;;;;14.46;79.88;100151.58;1614584;88;21098;-80
2022/06/03 05:07:11;;;;;;;10.63;3.02;;;;;;;14.56;79.29;100153.84;1613719;88;21563;-81
2022/06/03 05:10:06;;;;;;;3.25;3.05;;;;;;;14.57;79.23;100148.48;1614566;88;21035;-79
2022/06/03 05:13:00;;;;;;;6.67;3.25;;;;;;;14.59;78.24;100156.40;1611198;88;21151;-82
2022/06/03 05:16:07;;;;;;;3.65;2.47;;;;;;;14.56;78.27;100167.97;1611482;88;21110;-82
2022/06/03 05:18:52;;;;;;;2.75;2.55;;;;;;;14.54;78.05;100161.88;1606051;89;21060;-81
2022/06/03 05:21:36;;;;;;;2.93;2.73;;;;;;;14.58;78.85;100174.52;1565014;88;21067;-81
2022/06/03 05:24:36;;;;;;;2.30;2.10;;;;;;;14.64;78.03;100172.52;1616439;88;21147;-81
2022/06/03 05:27:30;;;;;;;5.42;2.20;;;;;;;14.68;77.16;100179.87;1632860;87;21274;-81
2022/06/03 05:30:40;;;;;;;4.60;2.10;;;;;;;14.73;77.05;100191.14;1616191;88;21063;-80
2022/06/03 05:33:56;;;;;;;5.87;2.08;;;;;;;14.81;77.20;100190.37;1616018;88;21055;-81
2022/06/03 05:36:28;;;;;;;3.35;2.33;;;;;;;14.90;75.48;100194.89;1612964;88;21308;-82
2022/06/03 05:39:20;;;;;;;3.00;2.00;;;;;;;14.88;75.08;100195.39;1586082;88;21079;-80
2022/06/03 05:42:31;;;;;;;3.52;1.60;;;;;;;14.87;74.53;100193.22;1615938;88;21942;-80
2022/06/03 05:45:26;;;;;;;1.75;1.65;;;;;;;14.90;73.35;100190.92;1605468;89;21100;-81
2022/06/03 05:48:14;;;;;;;2.92;1.95;;;;;;;14.94;74.09;100199.13;1639996;87;21042;-81
2022/06/03 05:50:46;;;;;;;4.78;2.60;;;;;;;15.04;73.72;100207.08;1660260;86;21051;-83
2022/06/03 05:53:39;;;;;;;5.20;2.40;;;;;;;15.14;73.40;100208.89;1632124;87;21023;-82
2022/06/03 05:56:34;;;;;;;2.67;2.15;;;;;;;15.20;74.35;100217.44;1660181;86;21204;-81
2022/06/03 05:59:40;;;;;;;3.22;1.87;;;;;;;15.32;73.93;100212.55;1646417;86;21214;-83
2022/06/03 06:02:25;;;;;;;2.12;1.95;;;;;;;15.43;72.68;100210.27;1660299;86;21232;-80
2022/06/03 06:05:27;;;;;;;4.67;2.00;;;;;;;15.49;72.67;100213.98;1660603;86;21051;-80
2022/06/03 06:08:10;;;;;;;4.42;1.80;;;;;;;15.54;71.46;100210.67;1659863;86;21506;-80
2022/06/03 06:11:13;;;;;;;2.25;2.05;;;;;;;15.63;70.96;100211.20;1643816;86;21155;-80
2022/06/03 06:14:23;;;;;;;2.12;1.90;;;;;;;15.73;70.62;100213.83;1660053;86;21083;-83
2022/06/03 06:16:51;;;;;;;1.50;1.40;;;;;;;15.82;69.90;100209.48;1660077;85;21131;-82
2022/06/03 06:19:39;;;;;;;10.35;2.20;;;;;;;15.92;68.81;100209.46;1637579;86;21071;-81
2022/06/03 06:22:26;;;;;;;3.25;1.62;;;;;;;15.99;68.69;100215.35;1660404;86;21550;-80
2022/06/03 06:25:10;;;;;;;3.58;2.00;;;;;;;16.06;68.11;100206.16;1660168;86;21228;-82
2022/06/03 06:28:04;;;;;;;7.55;2.10;;;;;;;16.14;67.52;100208.48;1639765;86;21337;-83
2022/06/03 06:30:48;;;;;;;5.22;1.92;;;;;;;16.22;67.67;100214.27;1659899;86;21015;-81
2022/06/03 06:33:47;;;;;;;5.63;1.77;;;;;;;16.30;67.72;100210.78;1662282;86;21108;-83
2022/06/03 06:36:25;;;;;;;2.08;1.80;;;;;;;16.41;67.09;100208.08;1655212;86;21806;-81
2022/06/03 06:39:17;;;;;;;2.45;1.60;;;;;;;16.48;66.14;100206.87;1691864;84;21583;-83
2022/06/03 06:42:02;;;;;;;1.80;1.62;;;;;;;16.53;65.14;100206.19;1691534;84;21098;-82
2022/06/03 06:44:46;;;;;;;3.50;1.70;;;;;;;16.60;65.81;100206.27;1665303;86;21150;-83
2022/06/03 06:47:44;;;;;;;3.40;1.77;;;;;;;16.70;65.27;100204.88;1665579;85;21024;-81
2022/06/03 06:50:22;;;;;;;2.45;1.25;;;;;;;16.79;63.39;100214.67;1665440;85;21221;-82
2022/06/03 06:53:10;;;;;;;1.92;1.40;;;;;;;16.89;62.34;100210.66;1665470;85;21008;-82
2022/06/03 06:55:54;;;;;;;2.65;1.50;;;;;;;16.93;61.35;100213.56;1655758;86;21032;-82
2022/06/03 06:58:44;;;;;;;6.33;1.47;;;;;;;16.99;61.43;100211.91;1665343;86;21578;-83
2022/06/03 07:01:18;;;;;;;2.10;1.30;;;;;;;17.04;59.99;100203.23;1665141;86;21095;-81
2022/06/03 07:03:53;;;;;;;2.70;1.25;;;;;;;17.08;60.86;100211.94;1665691;86;21019;-82
2022/06/03 07:06:27;;;;;;;3.62;1.27;;;;;;;17.14;60.83;100207.63;1665438;85;21536;-83
2022/06/03 07:09:21;;;;;;;2.60;1.45;;;;;;;17.22;60.74;100212.56;1665551;85;21051;-84
2022/06/03 07:11:54;;;;;;;1.12;1.10;;;;;;;17.30;61.19;100217.02;1665103;86;21028;-83
2022/06/03 07:14:30;;;;;;;3.55;1.20;;;;;;;17.44;60.93;100215.82;1665547;86;21225;-84
2022/06/03 07:20:48;;;;;;;1.55;1.35;;;;;;;17.63;59.29;100221.52;1649378;85;21167;-83
2022/06/03 07:23:23;;;;;;;2.72;1.30;;;;;;;17.72;59.90;100230.36;1672248;85;21098;-84
2022/06/03 07:25:56;;;;;;;2.37;1.47;;;;;;;17.80;58.04;100224.16;1672475;85;21572;-82
2022/06/03 07:28:46;;;;;;;4.22;1.20;;;;;;;17.86;58.12;100221.62;1671371;85;21521;-83
2022/06/03 07:31:30;;;;;;;1.72;1.30;;;;;;;17.93;58.05;100227.03;1640235;85;21602;-83
2022/06/03 07:34:25;;;;;;;6.72;1.20;;;;;;;18.03;57.75;100219.89;1694271;84;21136;-84
2022/06/03 07:37:15;;;;;;;1.20;1.00;;;;;;;18.11;58.11;100215.87;1691408;84;21047;-84
2022/06/03 07:39:50;;;;;;;2.25;1.35;;;;;;;18.22;57.51;100219.73;1687624;84;20978;-82
2022/06/03 07:43:08;;;;;;;4.55;1.47;;;;;;;18.29;55.98;100213.12;1723444;83;21121;-84
2022/06/03 07:45:46;;;;;;;1.30;1.20;;;;;;;18.34;56.80;100221.72;1723498;83;21146;-83
2022/06/03 07:48:19;;;;;;;3.27;1.37;;;;;;;18.46;57.61;100208.17;1723335;83;21483;-82
2022/06/03 07:50:59;;;;;;;3.27;1.67;;;;;;;18.59;57.53;100211.02;1723631;83;21070;-84
2022/06/03 07:53:40;;;;;;;4.45;1.60;;;;;;;18.68;57.97;100207.36;1723550;83;21068;-82
2022/06/03 07:56:08;;;;;;;2.05;1.20;;;;;;;18.81;57.33;100205.31;1692010;83;21154;-84
2022/06/03 07:58:37;;;;;;;3.60;1.55;;;;;;;18.88;56.77;100206.25;1723610;83;21110;-82
2022/06/03 08:01:25;;;;;;;1.37;1.20;;;;;;;18.93;54.20;100205.98;1723350;83;21198;-81
2022/06/03 08:03:53;;;;;;;1.35;1.15;;;;;;;18.94;53.70;100209.87;1714885;83;21008;-82
2022/06/03 08:10:56;;;;;;;2.10;1.42;;;;;;;18.99;56.51;100213.61;1723465;83;21024;-81
2022/06/03 08:11:47;;;;;;;2.83;1.20;;;;;;;19.16;55.15;100212.61;1723406;83;21086;-82
2022/06/03 08:14:13;;;;;;;1.47;1.10;;;;;;;19.25;54.47;100213.41;1723418;83;21066;-81
2022/06/03 08:16:42;;;;;;;2.58;1.45;;;;;;;19.30;53.07;100211.33;1721845;83;20988;-83
2022/06/03 08:19:17;;;;;;;2.70;1.20;;;;;;;19.35;55.06;100219.52;1720684;83;21091;-83
2022/06/03 08:21:59;;;;;;;2.55;1.30;;;;;;;19.47;55.65;100224.14;1720644;83;21095;-83
2022/06/03 08:24:30;;;;;;;9.65;1.60;;;;;;;19.52;53.20;100211.38;1720943;83;21154;-83
2022/06/03 08:27:01;;;;;;;1.55;1.20;;;;;;;19.54;53.01;100221.95;1720400;83;21171;-82
2022/06/03 08:29:43;;;;;;;6.45;1.42;;;;;;;19.49;52.17;100211.55;1720235;83;21055;-83
2022/06/03 08:32:20;;;;;;;1.45;1.30;;;;;;;19.52;51.09;100210.04;1691971;83;21043;-84
2022/06/03 08:34:51;;;;;;;3.27;1.07;;;;;;;19.56;53.88;100208.03;1675078;85;21091;-83
2022/06/03 08:37:45;;;;;;;0.93;0.90;;;;;;;19.63;53.52;100216.89;1691632;84;21122;-83
2022/06/03 08:40:43;;;;;;;1.80;1.17;;;;;;;19.72;52.97;100219.95;1675312;85;21214;-85
2022/06/03 08:43:49;;;;;;;1.60;1.10;;;;;;;19.86;52.00;100226.68;1691519;84;21550;-85
2022/06/03 08:46:28;;;;;;;5.87;1.45;;;;;;;19.88;50.96;100224.77;1674856;85;21122;-85
2022/06/03 08:49:02;;;;;;;3.17;1.15;;;;;;;19.86;51.57;100222.67;1691674;84;20968;-83
2022/06/03 08:51:44;;;;;;;1.90;1.27;;;;;;;19.88;51.17;100230.59;1675160;85;21181;-85
2022/06/03 08:54:29;;;;;;;2.70;1.20;;;;;;;19.88;50.84;100231.44;1691340;84;48692;-85
2022/06/03 08:57:23;;;;;;;5.25;1.00;;;;;;;19.92;51.29;100238.33;1674523;85;21015;-82
2022/06/03 08:59:55;;;;;;;1.30;1.20;;;;;;;19.99;50.93;100228.97;1691536;84;21091;-83
2022/06/03 09:02:37;;;;;;;2.62;1.10;;;;;;;20.11;51.26;100231.84;1675325;85;21098;-84
2022/06/03 09:05:12;;;;;;;3.92;1.25;;;;;;;20.24;53.06;100235.45;1669977;84;21028;-85
2022/06/03 09:07:48;;;;;;;3.17;1.10;;;;;;;20.43;53.28;100243.14;1675149;85;21201;-86
2022/06/03 09:10:30;;;;;;;7.53;1.17;;;;;;;20.59;51.80;100244.34;1690918;84;21032;-83
2022/06/03 09:13:22;;;;;;;2.65;1.00;;;;;;;20.72;52.61;100238.60;1674653;85;21102;-85
2022/06/03 09:15:49;;;;;;;1.20;1.10;;;;;;;20.88;51.58;100242.94;1674868;85;21011;-83
2022/06/03 09:18:27;;;;;;;1.77;1.00;;;;;;;20.98;51.18;100237.39;1691639;84;21585;-84
2022/06/03 09:21:04;;;;;;;1.47;1.10;;;;;;;21.08;51.10;100242.95;1674797;85;21950;-82
2022/06/03 09:23:44;;;;;;;2.75;1.00;;;;;;;21.22;49.82;100248.25;1691949;84;21557;-83
2022/06/03 09:26:29;;;;;;;3.70;1.20;;;;;;;21.32;49.64;100248.49;1674755;85;21047;-86
2022/06/03 09:28:57;;;;;;;1.20;1.10;;;;;;;21.36;47.91;100248.64;1672996;84;21134;-85
2022/06/03 09:31:24;;;;;;;1.40;1.10;;;;;;;21.36;49.37;100251.32;1674819;85;21092;-84
2022/06/03 09:33:53;;;;;;;1.00;1.00;;;;;;;21.47;50.67;100250.64;1691720;84;21153;-86
2022/06/03 09:36:20;;;;;;;1.67;0.93;;;;;;;21.57;49.26;100242.81;1674706;85;21047;-84
2022/06/03 09:39:08;;;;;;;1.95;1.67;;;;;;;21.64;49.39;100241.45;1691400;84;21628;-86
2022/06/03 09:41:42;;;;;;;4.70;1.20;;;;;;;21.69;50.19;100242.83;1674496;85;21657;-84
2022/06/03 09:44:12;;;;;;;4.58;0.90;;;;;;;21.77;49.77;100244.98;1652812;85;21547;-83
2022/06/03 09:46:40;;;;;;;3.33;1.07;;;;;;;21.86;50.64;100254.19;1646647;87;21136;-84
2022/06/03 09:49:06;;;;;;;4.62;1.10;;;;;;;21.99;49.65;100247.47;1646759;86;21618;-85
2022/06/03 09:54:38;;;;;;;1.98;1.00;;;;;;;22.18;49.16;100240.34;1646640;87;21053;-86
2022/06/03 09:57:16;;;;;;;0.95;0.90;;;;;;;22.30;47.76;100238.62;1644201;87;21089;-84
2022/06/03 10:00:08;;;;;;;0.82;0.78;;;;;;;22.37;45.63;100237.21;1620179;88;21957;-86
2022/06/03 10:02:44;;;;;;;3.08;0.90;;;;;;;22.46;45.22;100240.58;1646780;87;21549;-83
2022/06/03 10:05:16;;;;;;;1.32;0.88;;;;;;;22.52;44.90;100242.80;1646719;87;21520;-86
2022/06/03 10:07:45;;;;;;;0.80;0.80;;;;;;;22.54;43.70;100247.55;1620251;88;21142;-85
2022/06/03 10:13:04;;;;;;;2.92;0.90;;;;;;;22.57;44.97;100240.63;1646463;87;21226;-85
2022/06/03 10:15:38;;;;;;;0.72;0.72;;;;;;;22.59;43.28;100244.08;1620234;88;21055;-83
2022/06/03 10:18:21;;;;;;;2.08;0.90;;;;;;;22.62;44.46;100250.53;1644050;87;21323;-83
2022/06/03 10:20:49;;;;;;;0.72;0.72;;;;;;;22.66;44.14;100248.98;1653665;86;21066;-84
2022/06/03 10:23:22;;;;;;;1.90;0.90;;;;;;;22.69;43.80;100248.26;1676344;85;22233;-87
2022/06/03 10:25:51;;;;;;;1.47;1.10;;;;;;;22.77;43.60;100249.89;1693634;84;22290;-84
2022/06/03 10:28:18;;;;;;;1.12;0.95;;;;;;;22.82;42.71;100245.53;1664997;86;21413;-84
2022/06/03 10:30:46;;;;;;;1.70;1.07;;;;;;;22.82;41.88;100246.38;1665434;86;21033;-86
2022/06/03 10:33:21;;;;;;;2.60;1.00;;;;;;;22.79;42.65;100243.08;1663938;86;21104;-86
2022/06/03 10:35:50;;;;;;;1.52;0.80;;;;;;;22.75;42.24;100241.61;1673123;85;21086;-84
2022/06/03 10:38:18;;;;;;;5.33;0.90;;;;;;;22.79;42.93;100235.03;1697328;84;21102;-86
2022/06/03 10:40:49;;;;;;;1.15;0.85;;;;;;;22.88;43.55;100237.05;1674689;85;21672;-86
2022/06/03 10:43:30;;;;;;;1.17;1.00;;;;;;;22.99;43.68;100238.91;1691827;84;21109;-85
2022/06/03 10:46:17;;;;;;;2.35;0.90;;;;;;;23.06;43.87;100244.67;1674616;85;21519;-84
2022/06/03 10:48:46;;;;;;;1.55;0.78;;;;;;;23.12;43.90;100234.86;1691707;84;21090;-86
2022/06/03 11:02:36;;;;;;;3.20;0.80;;;;;;;23.50;39.70;100233.73;1674979;85;21091;-86
2022/06/03 11:05:28;;;;;;;3.70;0.78;;;;;;;23.48;41.45;100237.03;1691772;84;21434;-87
2022/06/03 11:08:08;;;;;;;2.08;0.65;;;;;;;23.48;39.97;100228.97;1674800;85;21137;-86
2022/06/03 11:10:49;;;;;;;1.70;0.70;;;;;;;23.49;42.42;100230.20;1691631;84;21082;-86
2022/06/03 11:13:31;;;;;;;3.20;0.72;;;;;;;23.60;42.70;100228.02;1675120;85;21142;-83
2022/06/03 11:16:20;;;;;;;3.70;0.95;;;;;;;23.79;43.38;100231.94;1674646;85;21089;-86
2022/06/03 11:18:47;;;;;;;1.00;0.75;;;;;;;23.83;39.02;100239.69;1682097;84;21126;-84
2022/06/03 11:21:26;;;;;;;3.55;0.78;;;;;;;23.79;42.33;100229.26;1664949;86;21043;-86
2022/06/03 11:23:56;;;;;;;1.07;0.70;;;;;;;23.85;41.65;100226.98;1681508;85;21091;-87
2022/06/03 11:26:28;;;;;;;1.87;1.15;;;;;;;23.92;41.42;100228.22;1664908;86;21629;-87
2022/06/03 11:29:02;;;;;;;3.08;1.30;;;;;;;23.96;40.14;100230.17;1681568;85;21043;-84
2022/06/03 11:31:37;;;;;;;3.20;1.00;;;;;;;24.01;41.43;100228.47;1664924;86;21201;-85
2022/06/03 11:34:33;;;;;;;1.62;0.80;;;;;;;24.16;40.90;100227.24;1681935;85;21080;-86
2022/06/03 11:37:05;;;;;;;0.70;0.70;;;;;;;24.31;41.36;100221.13;1682442;84;21073;-84
2022/06/03 11:40:12;;;;;;;0.93;0.75;;;;;;;24.48;40.36;100230.00;1701157;84;21076;-85
2022/06/03 11:42:46;;;;;;;0.57;0.57;;;;;;;24.58;39.75;100218.04;1677307;84;22234;-81
2022/06/03 11:45:19;;;;;;;0.85;0.62;;;;;;;24.69;39.63;100215.80;1723792;83;21127;-85
2022/06/03 11:48:00;;;;;;;3.40;0.70;;;;;;;24.87;40.13;100212.58;1723660;83;21055;-86
2022/06/03 11:50:28;;;;;;;3.12;0.68;;;;;;;25.00;40.66;100209.22;1723632;83;21737;-86
2022/06/03 11:52:56;;;;;;;0.70;0.70;;;;;;;25.04;39.46;100212.00;1723537;83;21115;-87
2022/06/03 11:55:26;;;;;;;2.77;0.50;;;;;;;25.11;39.94;100218.56;1723324;83;21079;-84
2022/06/03 11:58:13;;;;;;;1.30;0.72;;;;;;;25.14;39.79;100214.27;1723555;83;21861;-86
2022/06/03 12:00:52;;;;;;;2.10;0.65;;;;;;;25.14;39.60;100206.19;1713969;83;21017;-85
2022/06/03 12:03:59;;;;;;;0.70;0.70;;;;;;;25.16;39.93;100205.56;1723248;83;21083;-87
2022/06/03 12:06:37;;;;;;;1.00;0.70;;;;;;;25.18;39.29;100200.05;1664047;86;21498;-85
2022/06/03 12:09:25;;;;;;;0.82;0.62;;;;;;;25.18;39.43;100202.74;1664133;86;21150;-86
2022/06/03 12:14:58;;;;;;;3.30;0.78;;;;;;;25.19;38.97;100198.58;1719314;83;21005;-83
2022/06/03 12:17:32;;;;;;;1.75;0.68;;;;;;;25.31;39.42;100203.94;1722758;83;21057;-86
2022/06/03 12:19:59;;;;;;;0.70;0.60;;;;;;;25.38;38.58;100205.95;1720503;83;21086;-85
2022/06/03 12:22:34;;;;;;;1.95;0.68;;;;;;;25.36;37.89;100196.32;1720612;83;21056;-83
2022/06/03 12:25:04;;;;;;;2.05;0.72;;;;;;;25.39;38.42;100196.06;1726664;82;21155;-84
2022/06/03 12:27:35;;;;;;;0.75;0.75;;;;;;;25.43;38.43;100201.53;1726549;83;21083;-86
2022/06/03 12:30:21;;;;;;;1.12;0.70;;;;;;;25.46;37.94;100188.30;1701704;82;21055;-83
2022/06/03 12:33:04;;;;;;;2.52;0.50;;;;;;;25.53;38.47;100190.81;1696882;84;21365;-85
2022/06/03 12:35:57;;;;;;;1.40;0.60;;;;;;;25.59;38.65;100190.30;1695926;84;21145;-85
2022/06/03 12:38:43;;;;;;;1.67;0.60;;;;;;;25.60;38.43;100190.64;1674938;85;21106;-85
2022/06/03 12:41:09;;;;;;;1.77;0.60;;;;;;;25.55;38.02;100187.02;1691509;84;21174;-88
2022/06/03 12:43:56;;;;;;;0.80;0.72;;;;;;;25.64;37.53;100179.09;1674502;85;21106;-88
2022/06/03 12:46:44;;;;;;;3.00;0.70;;;;;;;25.73;37.70;100178.30;1691577;84;21218;-86
2022/06/03 12:49:36;;;;;;;1.72;0.72;;;;;;;25.74;37.07;100175.98;1674310;85;21087;-87
2022/06/03 12:52:08;;;;;;;0.65;0.60;;;;;;;25.66;36.45;100182.53;1691643;84;21536;-86
2022/06/03 12:55:17;;;;;;;1.82;0.70;;;;;;;25.63;37.61;100174.20;1675111;85;21127;-87
2022/06/03 12:57:57;;;;;;;0.82;0.82;;;;;;;25.67;37.62;100181.52;1691551;84;21182;-87
2022/06/03 13:00:36;;;;;;;0.60;0.60;;;;;;;25.54;37.09;100185.30;1675063;85;21054;-84
2022/06/03 13:03:10;;;;;;;1.65;0.70;;;;;;;25.49;37.63;100187.54;1674110;85;21054;-87
2022/06/03 13:05:51;;;;;;;1.10;0.60;;;;;;;25.46;37.30;100181.06;1691949;84;21833;-86
2022/06/03 13:08:30;;;;;;;0.80;0.70;;;;;;;25.42;37.49;100187.72;1674773;85;21011;-87
2022/06/03 13:11:05;;;;;;;3.47;0.70;;;;;;;25.40;37.69;100184.28;1675050;85;21649;-87
2022/06/03 13:13:39;;;;;;;1.15;0.68;;;;;;;25.46;37.23;100176.18;1691629;84;21016;-84
2022/06/03 13:16:35;;;;;;;0.60;0.60;;;;;;;25.55;37.45;100170.85;1674884;85;21621;-80
2022/06/03 13:19:25;;;;;;;0.98;0.60;;;;;;;25.67;37.53;100172.97;1673204;85;21840;-88
2022/06/03 13:22:04;;;;;;;0.55;0.45;;;;;;;25.78;37.38;100170.66;1673402;85;21129;-88
2022/06/03 13:24:40;;;;;;;0.95;0.80;;;;;;;25.87;36.89;100173.91;1673661;85;21162;-85
2022/06/03 13:27:25;;;;;;;1.70;0.78;;;;;;;25.93;36.83;100171.99;1673144;85;21141;-89